Time;durP1;ratioP1;P1;durP2;ratioP2;P2;SDS_P1;SDS_P2;PMS_P1;PMS_P2;Temp;Humidity;BMP_temperature;BMP_pressure;BME280_temperature;BME280_humidity;BME280_pressure;Samples;Min_cycle;Max_cycle;Signal;HPM_P1;HPM_P2
2023/12/14 00:00:28;;;;;;;17.23;11.23;;;5.00;99.90;;;;;;5024206;28;20755;-55
2023/12/14 00:02:54;;;;;;;11.83;10.47;;;5.00;99.90;;;;;;5022912;28;20199;-55
2023/12/14 00:05:19;;;;;;;15.40;11.77;;;5.00;99.90;;;;;;5031913;28;20681;-55
2023/12/14 00:07:45;;;;;;;14.47;9.43;;;5.00;99.90;;;;;;5027458;28;20787;-56
2023/12/14 00:10:12;;;;;;;15.43;9.87;;;4.90;99.90;;;;;;5028266;28;20320;-55
2023/12/14 00:12:38;;;;;;;13.80;9.27;;;5.20;99.90;;;;;;5030882;28;20190;-54
2023/12/14 00:15:04;;;;;;;15.37;10.27;;;5.10;99.90;;;;;;5026607;28;20216;-55
2023/12/14 00:17:29;;;;;;;13.43;10.00;;;5.00;99.90;;;;;;5008041;28;20233;-54
2023/12/14 00:19:55;;;;;;;11.23;9.63;;;5.00;99.90;;;;;;5005384;28;20210;-55
2023/12/14 00:22:20;;;;;;;14.73;9.20;;;4.90;99.90;;;;;;5013737;28;20799;-57
2023/12/14 00:24:46;;;;;;;15.53;10.63;;;4.90;99.90;;;;;;5026814;28;20224;-55
2023/12/14 00:27:12;;;;;;;13.50;9.87;;;5.00;99.90;;;;;;5028863;28;20284;-56
2023/12/14 00:29:37;;;;;;;17.57;11.10;;;5.00;99.90;;;;;;5031104;28;20191;-56
2023/12/14 00:32:03;;;;;;;12.67;9.47;;;5.10;99.90;;;;;;5028510;28;20207;-54
2023/12/14 00:34:29;;;;;;;12.27;10.13;;;5.10;99.90;;;;;;5023785;28;20205;-61
2023/12/14 00:36:54;;;;;;;14.93;10.33;;;5.00;99.90;;;;;;5027876;28;20310;-62
2023/12/14 00:39:19;;;;;;;12.67;9.87;;;4.90;99.90;;;;;;5005993;28;20248;-62
2023/12/14 00:41:45;;;;;;;15.77;11.13;;;5.00;99.90;;;;;;5009529;28;20545;-61
2023/12/14 00:44:11;;;;;;;16.00;10.90;;;4.90;99.90;;;;;;5020235;28;20260;-61
2023/12/14 00:46:36;;;;;;;12.60;9.77;;;4.90;99.90;;;;;;5028029;28;20237;-61
2023/12/14 00:49:02;;;;;;;14.10;10.30;;;5.00;99.90;;;;;;5013980;28;20195;-64
2023/12/14 00:51:28;;;;;;;15.27;9.90;;;4.90;99.90;;;;;;5030066;28;20226;-61
2023/12/14 00:53:53;;;;;;;14.30;9.57;;;4.60;99.90;;;;;;5005205;28;20622;-61
2023/12/14 00:56:19;;;;;;;18.20;9.83;;;4.60;99.90;;;;;;5019876;28;20203;-61
2023/12/14 00:58:44;;;;;;;12.00;9.07;;;4.70;99.90;;;;;;5023142;28;20210;-54
2023/12/14 01:01:10;;;;;;;12.03;9.50;;;4.80;99.90;;;;;;5011325;28;20202;-62
2023/12/14 01:03:35;;;;;;;12.60;9.50;;;4.70;99.90;;;;;;5017930;28;20201;-61
2023/12/14 01:06:01;;;;;;;14.00;10.07;;;4.80;99.90;;;;;;5029434;28;20225;-54
2023/12/14 01:08:26;;;;;;;14.70;10.50;;;4.70;99.90;;;;;;5028056;28;20894;-54
2023/12/14 01:10:52;;;;;;;14.00;8.87;;;4.60;99.90;;;;;;5030196;28;20226;-60
2023/12/14 01:13:17;;;;;;;16.33;9.27;;;4.70;99.90;;;;;;5030799;28;20214;-61
2023/12/14 01:15:43;;;;;;;12.17;9.10;;;4.60;99.90;;;;;;5025241;28;20222;-62
2023/12/14 01:18:08;;;;;;;13.47;8.83;;;4.60;99.90;;;;;;5027468;28;20284;-62
2023/12/14 01:20:34;;;;;;;10.60;8.23;;;4.60;99.90;;;;;;5027088;28;20598;-61
2023/12/14 01:22:59;;;;;;;12.70;9.43;;;4.60;99.90;;;;;;5028893;28;20207;-61
2023/12/14 01:25:24;;;;;;;12.37;9.10;;;4.50;99.90;;;;;;5024793;28;20676;-61
2023/12/14 01:27:50;;;;;;;11.53;8.17;;;4.50;99.90;;;;;;5027942;28;20195;-61
2023/12/14 01:30:16;;;;;;;10.73;8.27;;;4.60;99.90;;;;;;5029475;28;20769;-56
2023/12/14 01:32:41;;;;;;;10.43;8.23;;;4.50;99.90;;;;;;5024650;28;20755;-55
2023/12/14 01:35:07;;;;;;;9.67;7.63;;;4.50;99.90;;;;;;5017302;28;20697;-54
2023/12/14 01:37:32;;;;;;;8.87;7.33;;;4.60;99.90;;;;;;5027266;28;20211;-54
2023/12/14 01:39:58;;;;;;;12.03;7.87;;;4.70;99.90;;;;;;5021626;28;20322;-55
2023/12/14 01:42:23;;;;;;;9.70;7.50;;;4.70;99.90;;;;;;5017334;28;20211;-60
2023/12/14 01:44:49;;;;;;;9.83;7.47;;;4.80;99.90;;;;;;5024255;28;20279;-63
2023/12/14 01:47:14;;;;;;;10.60;8.57;;;4.60;99.90;;;;;;4999241;28;20302;-64
2023/12/14 01:49:41;;;;;;;10.37;7.63;;;4.60;99.90;;;;;;5025479;28;20293;-62
2023/12/14 01:52:07;;;;;;;8.43;6.53;;;4.70;99.90;;;;;;5033337;28;20215;-53
2023/12/14 01:54:33;;;;;;;8.13;6.80;;;4.80;99.90;;;;;;5027288;28;20643;-53
2023/12/14 01:56:59;;;;;;;7.97;7.17;;;4.70;99.90;;;;;;5028472;28;20206;-54
2023/12/14 01:59:24;;;;;;;9.37;7.13;;;4.60;99.90;;;;;;5027101;28;20194;-55
2023/12/14 02:01:56;;;;;;;10.47;6.73;;;4.50;99.90;;;;;;5033732;28;20628;-54
2023/12/14 02:04:23;;;;;;;8.77;5.87;;;4.50;99.90;;;;;;5031707;28;20194;-53
2023/12/14 02:06:49;;;;;;;11.60;7.50;;;4.40;99.90;;;;;;5029841;28;20199;-54
2023/12/14 02:09:15;;;;;;;11.20;7.27;;;4.40;99.90;;;;;;5033037;28;20925;-53
2023/12/14 02:11:40;;;;;;;8.17;7.30;;;4.50;99.90;;;;;;5033125;28;20206;-54
2023/12/14 02:14:08;;;;;;;10.20;6.90;;;4.60;99.90;;;;;;5030537;28;20201;-53
2023/12/14 02:16:33;;;;;;;9.70;6.40;;;4.60;99.90;;;;;;5033792;28;20225;-53
2023/12/14 02:18:59;;;;;;;9.33;6.90;;;4.40;99.90;;;;;;5033884;28;21092;-53
2023/12/14 02:21:24;;;;;;;9.77;7.60;;;4.50;99.90;;;;;;5031825;28;20222;-52
2023/12/14 02:23:50;;;;;;;9.80;7.07;;;4.40;99.90;;;;;;5033266;28;20635;-53
2023/12/14 02:26:15;;;;;;;10.33;7.63;;;4.50;99.90;;;;;;5014508;28;20206;-56
2023/12/14 02:28:41;;;;;;;9.20;7.83;;;4.50;99.90;;;;;;5032795;28;20191;-53
2023/12/14 02:31:06;;;;;;;9.13;8.23;;;4.40;99.90;;;;;;5027505;28;20435;-53
2023/12/14 02:33:32;;;;;;;11.40;9.07;;;4.40;99.90;;;;;;5028220;28;20704;-53
2023/12/14 02:35:58;;;;;;;10.13;8.27;;;4.40;99.90;;;;;;5027348;28;20309;-54
2023/12/14 02:38:23;;;;;;;12.83;9.63;;;4.20;99.90;;;;;;5025268;28;20210;-54
2023/12/14 02:40:52;;;;;;;10.50;9.20;;;4.10;99.90;;;;;;5032213;28;20561;-53
2023/12/14 02:43:19;;;;;;;9.57;8.37;;;4.10;99.90;;;;;;5011098;28;20998;-54
2023/12/14 02:45:45;;;;;;;12.80;9.80;;;4.10;99.90;;;;;;5026574;28;20203;-53
2023/12/14 02:48:11;;;;;;;14.03;9.60;;;4.10;99.90;;;;;;5032278;28;20397;-53
2023/12/14 02:50:36;;;;;;;11.03;8.10;;;4.10;99.90;;;;;;5008069;28;20222;-53
2023/12/14 02:53:02;;;;;;;11.73;9.17;;;4.20;99.90;;;;;;5024727;28;20210;-53
2023/12/14 02:55:28;;;;;;;12.40;8.80;;;4.30;99.90;;;;;;5028531;28;20198;-53
2023/12/14 02:57:53;;;;;;;13.50;9.30;;;4.10;99.90;;;;;;5027650;28;20345;-54
2023/12/14 03:00:19;;;;;;;12.63;8.03;;;4.30;99.90;;;;;;5029377;28;20248;-54
2023/12/14 03:02:45;;;;;;;12.33;8.97;;;4.30;99.90;;;;;;5028871;28;20215;-53
2023/12/14 03:05:10;;;;;;;11.63;8.90;;;4.30;99.90;;;;;;5032276;28;20214;-53
2023/12/14 03:07:36;;;;;;;13.03;10.10;;;4.20;99.90;;;;;;5029738;28;20201;-52
2023/12/14 03:10:03;;;;;;;11.70;10.47;;;4.30;99.90;;;;;;5020816;28;20217;-53
2023/12/14 03:12:28;;;;;;;13.60;9.30;;;4.20;99.90;;;;;;5027442;28;20568;-53
2023/12/14 03:14:54;;;;;;;14.37;10.50;;;4.30;99.90;;;;;;5031922;28;20187;-53
2023/12/14 03:17:19;;;;;;;11.20;9.37;;;4.30;99.90;;;;;;5030501;28;20237;-56
2023/12/14 03:19:45;;;;;;;11.20;9.33;;;4.30;99.90;;;;;;5026055;28;20561;-53
2023/12/14 03:22:10;;;;;;;13.07;9.27;;;4.20;99.90;;;;;;5027632;28;20286;-53
2023/12/14 03:24:36;;;;;;;11.33;9.13;;;4.20;99.90;;;;;;5007139;28;20201;-53
2023/12/14 03:27:02;;;;;;;13.40;9.43;;;4.10;99.90;;;;;;5031371;28;20562;-52
2023/12/14 03:29:28;;;;;;;10.23;9.00;;;4.20;99.90;;;;;;5027508;28;20238;-52
2023/12/14 03:31:55;;;;;;;13.90;10.33;;;4.10;99.90;;;;;;5025739;28;20225;-53
2023/12/14 03:34:21;;;;;;;13.33;9.37;;;4.10;99.90;;;;;;5000941;28;20225;-64
2023/12/14 03:36:46;;;;;;;10.97;9.50;;;4.00;99.90;;;;;;5018505;28;20203;-54
2023/12/14 03:39:12;;;;;;;11.07;8.60;;;4.10;99.90;;;;;;5031735;28;20720;-54
2023/12/14 03:41:37;;;;;;;10.40;9.17;;;4.10;99.90;;;;;;5029408;28;20207;-54
2023/12/14 03:44:03;;;;;;;10.23;9.17;;;4.20;99.90;;;;;;5019162;28;20740;-52
2023/12/14 03:46:29;;;;;;;11.80;9.20;;;4.20;99.90;;;;;;5007094;28;20656;-55
2023/12/14 03:48:55;;;;;;;12.60;9.73;;;4.20;99.90;;;;;;5020281;28;20192;-54
2023/12/14 03:51:20;;;;;;;9.97;8.43;;;4.20;99.90;;;;;;5031038;28;20690;-53
2023/12/14 03:53:46;;;;;;;10.53;8.33;;;4.30;99.90;;;;;;5023940;28;20266;-52
2023/12/14 03:56:11;;;;;;;9.57;8.03;;;4.30;99.90;;;;;;5019073;28;20234;-53
2023/12/14 03:58:37;;;;;;;11.80;9.53;;;4.20;99.90;;;;;;5021517;28;20229;-53
2023/12/14 04:01:03;;;;;;;10.20;8.10;;;4.30;99.90;;;;;;5009238;28;20737;-54
2023/12/14 04:03:28;;;;;;;9.70;7.67;;;4.30;99.90;;;;;;5025207;28;20229;-52
2023/12/14 04:05:54;;;;;;;10.23;8.00;;;4.30;99.90;;;;;;5019915;28;20910;-53
2023/12/14 04:08:19;;;;;;;9.37;7.27;;;4.30;99.90;;;;;;5031086;28;20205;-52
2023/12/14 04:10:45;;;;;;;9.30;7.10;;;4.30;99.90;;;;;;5029074;28;20700;-53
2023/12/14 04:13:10;;;;;;;11.13;7.53;;;4.30;99.90;;;;;;5027765;28;20260;-52
2023/12/14 04:15:36;;;;;;;9.13;7.53;;;4.40;99.90;;;;;;5030680;28;20202;-53
2023/12/14 04:18:01;;;;;;;8.27;7.10;;;4.30;99.90;;;;;;5013241;28;20621;-52
2023/12/14 04:20:27;;;;;;;7.93;6.73;;;4.30;99.90;;;;;;5026974;28;20209;-56
2023/12/14 04:22:52;;;;;;;10.07;6.57;;;4.30;99.90;;;;;;5029397;28;20208;-53
2023/12/14 04:25:18;;;;;;;7.90;7.07;;;4.30;99.90;;;;;;5021832;28;20633;-53
2023/12/14 04:27:44;;;;;;;9.57;8.03;;;4.40;99.90;;;;;;5022524;28;20198;-53
2023/12/14 04:30:10;;;;;;;8.13;6.70;;;4.60;99.90;;;;;;5008943;28;20226;-54
2023/12/14 04:32:36;;;;;;;9.80;7.43;;;4.40;99.90;;;;;;5025024;28;20290;-53
2023/12/14 04:35:02;;;;;;;9.37;7.47;;;4.50;99.90;;;;;;5023379;28;20194;-53
2023/12/14 04:37:28;;;;;;;10.00;7.63;;;4.50;99.90;;;;;;5030801;28;20210;-53
2023/12/14 04:39:54;;;;;;;9.17;7.40;;;4.40;99.90;;;;;;5030681;28;20229;-53
2023/12/14 04:42:19;;;;;;;12.07;8.83;;;4.40;99.90;;;;;;5025113;28;20688;-53
2023/12/14 04:44:45;;;;;;;10.93;7.53;;;4.50;99.90;;;;;;5018819;28;20203;-53
2023/12/14 04:47:10;;;;;;;8.67;6.90;;;4.70;99.90;;;;;;5030332;28;20601;-52
2023/12/14 04:49:36;;;;;;;9.43;7.73;;;4.60;99.90;;;;;;5030995;28;20191;-53
2023/12/14 04:52:02;;;;;;;11.17;8.47;;;4.40;99.90;;;;;;5029264;28;20214;-53
2023/12/14 04:54:27;;;;;;;11.33;7.40;;;4.50;99.90;;;;;;5025149;28;20615;-53
2023/12/14 04:56:52;;;;;;;9.87;7.83;;;4.60;99.90;;;;;;5032853;28;20278;-53
2023/12/14 04:59:18;;;;;;;9.13;6.93;;;4.50;99.90;;;;;;5030346;28;20207;-52
2023/12/14 05:01:44;;;;;;;10.90;9.40;;;4.50;99.90;;;;;;5033533;28;20553;-52
2023/12/14 05:04:09;;;;;;;10.57;8.53;;;4.50;99.90;;;;;;5030522;28;20202;-52
2023/12/14 05:06:35;;;;;;;11.00;8.10;;;4.30;99.90;;;;;;5033962;28;20206;-53
2023/12/14 05:09:04;;;;;;;10.60;7.77;;;4.40;99.90;;;;;;5034299;28;20260;-53
2023/12/14 05:11:29;;;;;;;12.53;8.47;;;4.30;99.90;;;;;;5011159;28;20225;-53
2023/12/14 05:13:55;;;;;;;12.20;7.93;;;4.30;99.90;;;;;;5027500;28;20266;-54
2023/12/14 05:16:20;;;;;;;10.93;7.83;;;4.30;99.90;;;;;;5023644;28;20231;-54
2023/12/14 05:18:46;;;;;;;11.13;8.50;;;4.30;99.90;;;;;;5028994;28;20364;-53
2023/12/14 05:21:17;;;;;;;10.27;7.43;;;4.40;99.90;;;;;;5029201;28;20275;-53
2023/12/14 05:23:43;;;;;;;11.20;8.50;;;4.40;99.90;;;;;;5029556;28;20737;-53
2023/12/14 05:26:08;;;;;;;9.73;8.27;;;4.40;99.90;;;;;;5031583;28;20264;-53
2023/12/14 05:28:35;;;;;;;12.80;9.13;;;4.30;99.90;;;;;;5034230;28;20293;-53
2023/12/14 05:31:00;;;;;;;10.37;8.17;;;4.20;99.90;;;;;;5029716;28;20217;-54
2023/12/14 05:33:26;;;;;;;10.57;7.57;;;4.20;99.90;;;;;;5011078;28;20234;-53
2023/12/14 05:35:51;;;;;;;9.83;7.90;;;4.30;99.90;;;;;;5025721;28;20204;-53
2023/12/14 05:38:17;;;;;;;9.07;7.60;;;4.20;99.90;;;;;;5033909;28;20206;-53
2023/12/14 05:40:43;;;;;;;10.03;8.03;;;4.40;99.90;;;;;;5033853;28;20202;-58
2023/12/14 05:43:10;;;;;;;10.50;8.50;;;4.30;99.90;;;;;;5014537;28;20616;-54
2023/12/14 05:45:35;;;;;;;10.03;8.90;;;4.40;99.90;;;;;;5014007;28;20280;-56
2023/12/14 05:48:02;;;;;;;11.13;8.90;;;4.50;99.90;;;;;;5033977;28;20198;-54
2023/12/14 05:50:27;;;;;;;11.23;7.87;;;4.50;99.90;;;;;;5028246;28;20225;-53
2023/12/14 05:52:53;;;;;;;11.07;7.87;;;4.40;99.90;;;;;;5029872;28;20199;-53
2023/12/14 05:55:21;;;;;;;8.40;7.50;;;4.40;99.90;;;;;;5025460;28;20488;-53
2023/12/14 05:57:50;;;;;;;10.27;8.07;;;4.30;99.90;;;;;;5029201;28;20541;-54
2023/12/14 06:00:17;;;;;;;10.27;7.33;;;4.30;99.90;;;;;;5033493;28;20285;-53
2023/12/14 06:02:43;;;;;;;7.77;6.97;;;4.40;99.90;;;;;;5009474;28;20199;-53
2023/12/14 06:05:09;;;;;;;11.90;9.47;;;4.40;99.90;;;;;;5023575;28;20230;-53
2023/12/14 06:07:35;;;;;;;9.47;8.20;;;4.30;99.90;;;;;;5025237;28;20198;-53
2023/12/14 06:10:01;;;;;;;9.03;7.67;;;4.40;99.90;;;;;;5029465;28;20885;-53
2023/12/14 06:12:27;;;;;;;7.57;6.83;;;4.30;99.90;;;;;;5022257;28;20200;-52
2023/12/14 06:14:52;;;;;;;13.63;7.97;;;4.50;99.90;;;;;;5033553;28;20211;-53
2023/12/14 06:17:18;;;;;;;7.63;6.83;;;4.50;99.90;;;;;;5031169;28;20652;-53
2023/12/14 06:19:43;;;;;;;9.27;7.80;;;4.30;99.90;;;;;;5024890;28;20241;-53
2023/12/14 06:22:09;;;;;;;9.30;7.77;;;4.30;99.90;;;;;;5033364;28;21070;-53
2023/12/14 06:24:34;;;;;;;8.93;7.77;;;4.30;99.90;;;;;;5025317;28;20199;-53
2023/12/14 06:27:00;;;;;;;8.03;7.23;;;4.30;99.90;;;;;;5007732;28;20187;-53
2023/12/14 06:29:25;;;;;;;7.90;6.77;;;4.30;99.90;;;;;;5026828;28;20207;-53
2023/12/14 06:31:51;;;;;;;9.10;7.83;;;4.10;99.90;;;;;;5032738;28;20595;-53
2023/12/14 06:34:16;;;;;;;9.77;7.93;;;4.20;99.90;;;;;;5015275;28;20284;-53
2023/12/14 06:36:45;;;;;;;10.20;8.50;;;4.30;99.90;;;;;;5025544;28;20198;-53
2023/12/14 06:39:11;;;;;;;9.70;8.80;;;4.30;99.90;;;;;;5028882;28;20279;-53
2023/12/14 06:41:37;;;;;;;8.57;7.63;;;4.30;99.90;;;;;;5025986;28;20264;-53
2023/12/14 06:44:03;;;;;;;7.70;6.67;;;4.40;99.90;;;;;;5027064;28;20674;-53
2023/12/14 06:46:29;;;;;;;8.00;7.20;;;4.50;99.90;;;;;;5029917;28;20227;-53
2023/12/14 06:48:55;;;;;;;8.57;6.77;;;4.40;99.90;;;;;;5007852;28;20246;-53
2023/12/14 06:51:21;;;;;;;7.63;6.83;;;4.30;99.90;;;;;;5016833;28;20655;-54
2023/12/14 06:53:47;;;;;;;7.23;6.53;;;4.40;99.90;;;;;;5027125;28;20201;-54
2023/12/14 06:56:13;;;;;;;7.90;7.10;;;4.30;99.90;;;;;;5027849;28;20200;-53
2023/12/14 06:58:40;;;;;;;9.27;7.00;;;4.30;99.90;;;;;;5031883;28;20274;-54
2023/12/14 07:01:06;;;;;;;6.77;6.07;;;4.50;99.90;;;;;;5028696;28;20187;-53
2023/12/14 07:03:32;;;;;;;6.23;5.60;;;4.40;99.90;;;;;;5031670;28;20199;-53
2023/12/14 07:05:58;;;;;;;6.37;5.77;;;4.40;99.90;;;;;;5028951;28;20209;-53
2023/12/14 07:08:24;;;;;;;7.50;6.63;;;4.40;99.90;;;;;;5026765;28;20196;-54
2023/12/14 07:10:49;;;;;;;6.47;5.67;;;4.40;99.90;;;;;;5030907;28;20484;-54
2023/12/14 07:13:15;;;;;;;6.57;5.97;;;4.40;99.90;;;;;;5027135;28;20202;-53
2023/12/14 07:15:40;;;;;;;8.57;6.43;;;4.50;99.90;;;;;;5030811;28;20198;-58
2023/12/14 07:18:06;;;;;;;7.10;6.40;;;4.50;99.90;;;;;;5031644;28;20611;-53
2023/12/14 07:20:31;;;;;;;7.33;6.30;;;4.50;99.90;;;;;;5028703;28;20210;-53
2023/12/14 07:22:57;;;;;;;7.97;6.83;;;4.60;99.90;;;;;;5033639;28;20203;-53
2023/12/14 07:25:23;;;;;;;9.40;7.23;;;4.70;99.90;;;;;;5028270;28;20600;-53
2023/12/14 07:27:48;;;;;;;8.40;7.30;;;4.60;99.90;;;;;;5028133;28;20220;-53
2023/12/14 07:30:14;;;;;;;8.73;7.23;;;4.60;99.90;;;;;;5003348;28;20431;-53
2023/12/14 07:32:40;;;;;;;8.27;7.47;;;4.70;99.90;;;;;;5007240;28;20561;-52
2023/12/14 07:35:06;;;;;;;8.97;7.87;;;4.80;99.90;;;;;;5026998;28;20253;-52
2023/12/14 07:37:31;;;;;;;10.87;8.67;;;4.90;99.90;;;;;;5033782;28;20209;-52
2023/12/14 07:39:58;;;;;;;9.17;7.67;;;4.70;99.90;;;;;;5028709;28;20272;-53
2023/12/14 07:42:24;;;;;;;9.33;8.33;;;4.70;99.90;;;;;;5027034;28;20188;-53
2023/12/14 07:44:49;;;;;;;10.33;8.57;;;4.70;99.90;;;;;;5025724;28;20647;-53
2023/12/14 07:47:15;;;;;;;12.57;9.47;;;4.80;99.90;;;;;;5025158;28;20598;-52
2023/12/14 07:49:41;;;;;;;10.87;9.27;;;4.70;99.90;;;;;;5018498;28;20573;-52
2023/12/14 07:52:06;;;;;;;11.73;9.87;;;4.70;99.90;;;;;;5012015;28;20733;-53
2023/12/14 07:54:32;;;;;;;12.70;10.23;;;4.60;99.90;;;;;;5033501;28;20202;-53
2023/12/14 07:56:57;;;;;;;12.63;10.33;;;4.50;99.90;;;;;;5031274;28;20233;-54
2023/12/14 07:59:23;;;;;;;11.80;9.23;;;4.80;99.90;;;;;;5027219;28;20510;-54
2023/12/14 08:01:49;;;;;;;11.90;10.00;;;4.60;99.90;;;;;;5013663;28;20191;-56
2023/12/14 08:04:15;;;;;;;12.20;10.10;;;4.70;99.90;;;;;;5009994;28;20209;-53
2023/12/14 08:06:41;;;;;;;12.17;9.20;;;4.70;99.90;;;;;;5026016;28;20533;-57
2023/12/14 08:09:07;;;;;;;13.47;10.33;;;4.60;99.90;;;;;;5029573;28;20206;-60
2023/12/14 08:11:33;;;;;;;14.43;9.43;;;4.70;99.90;;;;;;5031888;28;20876;-53
2023/12/14 08:13:59;;;;;;;12.47;10.90;;;4.70;99.90;;;;;;5010608;28;20682;-54
2023/12/14 08:16:24;;;;;;;13.63;9.93;;;4.60;99.90;;;;;;5026116;28;20309;-53
2023/12/14 08:18:50;;;;;;;12.03;9.60;;;4.60;99.90;;;;;;5022501;28;20206;-52
2023/12/14 08:21:17;;;;;;;11.43;9.40;;;4.70;99.90;;;;;;5028035;28;20205;-52
2023/12/14 08:23:43;;;;;;;13.97;10.23;;;5.10;99.90;;;;;;5021514;28;20728;-53
2023/12/14 08:26:11;;;;;;;12.13;10.40;;;5.10;99.90;;;;;;5022181;28;20226;-54
2023/12/14 08:28:37;;;;;;;16.53;11.33;;;4.80;99.90;;;;;;5023953;28;20227;-53
2023/12/14 08:31:03;;;;;;;14.13;10.93;;;4.80;99.90;;;;;;5029064;28;20987;-53
2023/12/14 08:33:29;;;;;;;11.77;9.37;;;4.90;99.90;;;;;;5022445;28;20649;-52
2023/12/14 08:35:56;;;;;;;11.47;9.73;;;5.10;99.90;;;;;;5014424;28;20218;-53
2023/12/14 08:38:21;;;;;;;12.30;10.43;;;5.00;99.90;;;;;;5034771;28;20252;-53
2023/12/14 08:40:46;;;;;;;13.43;11.40;;;5.00;99.90;;;;;;5028614;28;20215;-53
2023/12/14 08:43:12;;;;;;;15.60;11.33;;;5.00;99.90;;;;;;5019158;28;20351;-53
2023/12/14 08:45:38;;;;;;;12.23;9.77;;;4.90;99.90;;;;;;5031596;28;20213;-53
2023/12/14 08:48:04;;;;;;;16.03;11.00;;;5.10;99.90;;;;;;5029541;28;20819;-55
2023/12/14 08:50:30;;;;;;;14.93;10.30;;;5.00;99.90;;;;;;5024641;28;20864;-53
2023/12/14 08:52:58;;;;;;;13.07;10.77;;;5.00;99.90;;;;;;5027696;28;20214;-53
2023/12/14 08:55:24;;;;;;;14.27;10.73;;;4.80;99.90;;;;;;5026856;28;20194;-52
2023/12/14 08:57:50;;;;;;;17.10;10.90;;;4.70;99.90;;;;;;5022907;28;20205;-53
2023/12/14 09:00:17;;;;;;;14.97;11.07;;;4.70;99.90;;;;;;5020510;28;20633;-53
2023/12/14 09:02:43;;;;;;;13.73;11.13;;;4.70;99.90;;;;;;5018553;28;20201;-52
2023/12/14 09:05:09;;;;;;;15.17;12.33;;;4.80;99.90;;;;;;5016339;28;20788;-53
2023/12/14 09:07:35;;;;;;;14.10;10.40;;;4.90;99.90;;;;;;5032726;28;20240;-52
2023/12/14 09:10:00;;;;;;;14.30;11.47;;;4.80;99.90;;;;;;5029421;28;20198;-53
2023/12/14 09:12:26;;;;;;;13.43;10.93;;;4.80;99.90;;;;;;5032639;28;20682;-52
2023/12/14 09:14:51;;;;;;;15.90;12.47;;;4.80;99.90;;;;;;5029886;28;20267;-53
2023/12/14 09:17:18;;;;;;;13.80;11.10;;;4.70;99.90;;;;;;5008126;28;20247;-55
2023/12/14 09:19:43;;;;;;;21.80;12.80;;;4.70;99.90;;;;;;5012792;28;20238;-54
2023/12/14 09:22:12;;;;;;;14.60;11.00;;;4.60;99.90;;;;;;5030271;28;20226;-54
2023/12/14 09:24:37;;;;;;;15.40;11.20;;;4.80;99.90;;;;;;5033655;28;20223;-63
2023/12/14 09:27:03;;;;;;;15.40;11.03;;;4.70;99.90;;;;;;5027028;28;20488;-54
2023/12/14 09:29:28;;;;;;;15.30;11.07;;;4.70;99.90;;;;;;5027473;28;20676;-54
2023/12/14 09:31:54;;;;;;;14.70;11.70;;;4.90;99.90;;;;;;5032591;28;20222;-53
2023/12/14 09:34:19;;;;;;;13.13;11.13;;;4.70;99.90;;;;;;5026948;28;20739;-53
2023/12/14 09:36:45;;;;;;;16.77;12.33;;;4.70;99.90;;;;;;5024207;28;20417;-54
2023/12/14 09:39:11;;;;;;;14.67;11.33;;;4.70;99.90;;;;;;5029528;28;20198;-54
2023/12/14 09:41:39;;;;;;;15.23;12.03;;;4.70;99.90;;;;;;5032459;28;20260;-54
2023/12/14 09:44:09;;;;;;;14.07;10.63;;;4.70;99.90;;;;;;5029952;28;20668;-56
2023/12/14 09:46:37;;;;;;;14.30;12.00;;;4.70;99.90;;;;;;5015266;28;20264;-62
2023/12/14 09:49:04;;;;;;;15.83;11.30;;;4.80;99.90;;;;;;5026824;28;20198;-54
2023/12/14 09:51:30;;;;;;;13.20;11.80;;;4.90;99.90;;;;;;5024205;28;20239;-55
2023/12/14 09:53:58;;;;;;;13.53;11.47;;;5.00;99.90;;;;;;5031473;28;20202;-56
2023/12/14 09:56:27;;;;;;;12.13;9.20;;;4.90;99.90;;;;;;5083678;23;20407;-56
2023/12/14 09:58:53;;;;;;;11.50;9.83;;;4.90;99.90;;;;;;5019727;28;20196;-53
2023/12/14 10:01:26;;;;;;;13.17;10.60;;;4.90;99.90;;;;;;5002847;28;20178;-53
2023/12/14 10:04:15;;;;;;;11.77;10.40;;;4.90;99.90;;;;;;5016276;28;20226;-56
2023/12/14 10:06:42;;;;;;;13.80;10.53;;;4.90;99.90;;;;;;5018151;28;20214;-55
2023/12/14 10:09:09;;;;;;;13.27;10.03;;;4.90;99.90;;;;;;5016309;28;20199;-56
2023/12/14 10:11:37;;;;;;;11.33;9.70;;;5.10;99.90;;;;;;5016693;28;20302;-55
2023/12/14 10:14:04;;;;;;;13.40;10.30;;;5.20;99.90;;;;;;5018456;28;20199;-56
2023/12/14 10:16:33;;;;;;;14.80;10.40;;;5.20;99.90;;;;;;5015024;28;20175;-53
2023/12/14 10:18:59;;;;;;;11.50;9.40;;;5.00;99.90;;;;;;5015120;28;20203;-53
2023/12/14 10:21:28;;;;;;;17.10;11.87;;;4.80;99.90;;;;;;5020330;28;20226;-54
2023/12/14 10:23:58;;;;;;;15.07;11.37;;;4.70;99.90;;;;;;5021295;28;20206;-54
2023/12/14 10:26:25;;;;;;;15.07;11.77;;;4.70;99.90;;;;;;5016409;28;20847;-55
2023/12/14 10:28:51;;;;;;;13.13;10.77;;;4.70;99.90;;;;;;5012862;28;20203;-56
2023/12/14 10:31:19;;;;;;;15.03;12.07;;;4.90;99.90;;;;;;5017871;28;20211;-54
2023/12/14 10:33:46;;;;;;;23.87;11.67;;;4.90;99.90;;;;;;5013844;28;20200;-55
2023/12/14 10:36:13;;;;;;;13.63;10.03;;;5.00;99.90;;;;;;5014775;28;20210;-58
2023/12/14 10:38:39;;;;;;;13.90;10.97;;;5.00;99.90;;;;;;5000595;28;20200;-60
2023/12/14 10:41:07;;;;;;;16.07;11.80;;;4.90;99.90;;;;;;5013603;28;20227;-59
2023/12/14 10:43:36;;;;;;;15.03;11.53;;;4.80;99.90;;;;;;5013719;28;20203;-53
2023/12/14 10:46:04;;;;;;;13.90;10.93;;;4.80;99.90;;;;;;5014821;28;20195;-59
2023/12/14 10:48:30;;;;;;;13.03;10.27;;;4.90;99.90;;;;;;5015799;28;20249;-53
2023/12/14 10:50:59;;;;;;;14.73;10.70;;;4.80;99.90;;;;;;5001168;28;20952;-54
2023/12/14 10:53:25;;;;;;;12.40;9.87;;;4.80;99.90;;;;;;5002987;28;20222;-53
2023/12/14 10:55:52;;;;;;;16.03;11.97;;;4.80;99.90;;;;;;5009409;28;20314;-54
2023/12/14 10:58:19;;;;;;;12.87;10.57;;;4.80;99.90;;;;;;5013574;28;20235;-53
2023/12/14 11:00:59;;;;;;;17.33;11.43;;;4.70;99.90;;;;;;5020157;28;20588;-54
2023/12/14 11:03:26;;;;;;;13.67;12.20;;;4.80;99.90;;;;;;4985198;28;20940;-53
2023/12/14 11:05:51;;;;;;;18.37;13.23;;;4.90;99.90;;;;;;5022191;28;20179;-61
2023/12/14 11:08:17;;;;;;;14.57;11.73;;;5.00;99.90;;;;;;4994279;28;20692;-59
2023/12/14 11:10:56;;;;;;;13.83;11.23;;;4.90;99.90;;;;;;5008252;28;20635;-61
2023/12/14 11:13:22;;;;;;;13.97;11.33;;;4.90;99.90;;;;;;4995942;28;20202;-60
2023/12/14 11:15:50;;;;;;;16.17;11.83;;;4.80;99.90;;;;;;5016926;28;20249;-56
2023/12/14 11:18:15;;;;;;;15.73;11.93;;;4.90;99.90;;;;;;4992937;28;20622;-54
2023/12/14 11:20:44;;;;;;;12.73;11.43;;;5.00;99.90;;;;;;5012351;28;20555;-54
2023/12/14 11:23:13;;;;;;;13.50;10.40;;;5.10;99.90;;;;;;5006380;28;20704;-54
2023/12/14 11:25:41;;;;;;;16.07;10.70;;;5.10;99.90;;;;;;5009035;28;20281;-55
2023/12/14 11:28:10;;;;;;;13.83;10.70;;;5.20;99.90;;;;;;4990529;28;20702;-53
2023/12/14 11:30:36;;;;;;;14.87;10.30;;;5.30;99.90;;;;;;5014570;28;20219;-54
2023/12/14 11:33:02;;;;;;;13.03;10.73;;;5.20;99.90;;;;;;5014336;28;20572;-53
2023/12/14 11:35:28;;;;;;;13.10;9.10;;;5.10;99.90;;;;;;5012605;28;20206;-53
2023/12/14 11:37:56;;;;;;;13.70;10.43;;;5.10;99.90;;;;;;5004208;28;20202;-54
2023/12/14 11:40:22;;;;;;;12.43;9.40;;;5.10;99.90;;;;;;5009791;28;20228;-53
2023/12/14 11:43:08;;;;;;;13.13;9.83;;;5.00;99.90;;;;;;5005759;28;20605;-54
2023/12/14 11:45:38;;;;;;;12.83;10.30;;;5.10;99.90;;;;;;5012428;28;20242;-54
2023/12/14 11:48:05;;;;;;;11.53;9.73;;;5.00;99.90;;;;;;5021207;28;20208;-53
2023/12/14 11:50:33;;;;;;;10.57;9.47;;;5.00;99.90;;;;;;5017456;28;21035;-54
2023/12/14 11:53:03;;;;;;;12.80;10.37;;;5.10;99.90;;;;;;4985417;28;20288;-54
2023/12/14 11:55:33;;;;;;;10.93;9.80;;;5.10;99.90;;;;;;5009320;28;20624;-59
2023/12/14 11:57:59;;;;;;;11.70;8.70;;;5.20;99.90;;;;;;5012023;28;20882;-55
2023/12/14 12:00:29;;;;;;;14.13;8.60;;;5.20;99.90;;;;;;5007380;28;20198;-55
2023/12/14 12:03:08;;;;;;;11.67;8.97;;;5.30;99.90;;;;;;4996478;28;21073;-55
2023/12/14 12:05:39;;;;;;;12.90;9.20;;;5.30;99.90;;;;;;5005370;28;20658;-54
2023/12/14 12:08:05;;;;;;;11.23;8.17;;;5.40;99.90;;;;;;4989235;28;20214;-55
2023/12/14 12:10:31;;;;;;;12.83;10.23;;;5.20;99.90;;;;;;5000206;28;20697;-54
2023/12/14 12:13:18;;;;;;;11.10;9.40;;;5.20;99.90;;;;;;5005245;28;20248;-54
2023/12/14 12:15:44;;;;;;;10.70;9.33;;;5.20;99.90;;;;;;5007100;28;20203;-53
2023/12/14 12:18:12;;;;;;;10.77;9.47;;;5.40;99.90;;;;;;5012298;28;20234;-54
2023/12/14 12:20:38;;;;;;;12.70;8.67;;;5.50;99.90;;;;;;5014840;28;20199;-54
2023/12/14 12:23:04;;;;;;;13.13;10.20;;;5.30;99.90;;;;;;5013023;28;20955;-54
2023/12/14 12:25:33;;;;;;;13.37;9.33;;;5.20;99.90;;;;;;5008352;28;20849;-53
2023/12/14 12:27:59;;;;;;;12.97;9.80;;;5.30;99.90;;;;;;4983749;28;20199;-54
2023/12/14 12:30:25;;;;;;;11.77;10.20;;;5.30;99.90;;;;;;5008427;28;21157;-53
2023/12/14 12:32:51;;;;;;;10.60;9.23;;;5.30;99.90;;;;;;4985011;28;20842;-54
2023/12/14 12:35:23;;;;;;;10.83;9.10;;;5.30;99.90;;;;;;5011634;28;20206;-54
2023/12/14 12:37:53;;;;;;;12.43;9.60;;;5.30;99.90;;;;;;5005565;28;20684;-56
2023/12/14 12:40:20;;;;;;;12.87;10.43;;;5.30;99.90;;;;;;5003211;28;20278;-57